sensor_id;sensor_type;location;lat;lon;timestamp;pressure;altitude;pressure_sealevel;temperature;humidity
38452;BME280;24231;52.514;13.438;2023-01-25T00:03:02;103376.58;;;4.22;53.19
38452;BME280;24231;52.514;13.438;2023-01-25T00:05:29;103365.25;;;5.37;50.39
38452;BME280;24231;52.514;13.438;2023-01-25T00:07:57;103356.07;;;5.73;49.51
38452;BME280;24231;52.514;13.438;2023-01-25T00:10:25;103351.37;;;6.00;49.70
38452;BME280;24231;52.514;13.438;2023-01-25T00:12:52;103352.69;;;5.17;52.02
38452;BME280;24231;52.514;13.438;2023-01-25T00:15:19;103350.83;;;4.51;54.26
38452;BME280;24231;52.514;13.438;2023-01-25T00:17:47;103346.10;;;5.66;51.01
38452;BME280;24231;52.514;13.438;2023-01-25T00:20:15;103339.25;;;5.83;50.37
38452;BME280;24231;52.514;13.438;2023-01-25T00:22:42;103332.06;;;6.03;50.13
38452;BME280;24231;52.514;13.438;2023-01-25T00:25:10;103321.78;;;6.08;50.10
38452;BME280;24231;52.514;13.438;2023-01-25T00:27:37;103309.93;;;5.97;50.22
38452;BME280;24231;52.514;13.438;2023-01-25T00:33:02;103306.62;;;5.23;53.23
38452;BME280;24231;52.514;13.438;2023-01-25T00:35:33;103299.36;;;4.97;53.34
38452;BME280;24231;52.514;13.438;2023-01-25T00:38:02;103289.24;;;4.53;54.28
38452;BME280;24231;52.514;13.438;2023-01-25T00:40:32;103282.81;;;4.69;54.41
38452;BME280;24231;52.514;13.438;2023-01-25T00:42:59;103279.76;;;3.20;57.55
38452;BME280;24231;52.514;13.438;2023-01-25T00:45:26;103270.00;;;4.74;54.05
38452;BME280;24231;52.514;13.438;2023-01-25T00:48:04;103266.74;;;3.93;55.76
38452;BME280;24231;52.514;13.438;2023-01-25T00:50:32;103260.82;;;5.83;51.47
38452;BME280;24231;52.514;13.438;2023-01-25T00:52:59;103256.43;;;6.00;50.41
38452;BME280;24231;52.514;13.438;2023-01-25T00:55:26;103255.65;;;5.78;50.97
38452;BME280;24231;52.514;13.438;2023-01-25T00:57:54;103256.18;;;5.16;52.68
38452;BME280;24231;52.514;13.438;2023-01-25T01:00:21;103253.53;;;5.13;52.33
38452;BME280;24231;52.514;13.438;2023-01-25T01:02:48;103257.71;;;5.20;52.76
38452;BME280;24231;52.514;13.438;2023-01-25T01:05:16;103263.17;;;5.18;52.65
38452;BME280;24231;52.514;13.438;2023-01-25T01:07:43;103271.70;;;5.28;52.73
38452;BME280;24231;52.514;13.438;2023-01-25T01:10:11;103278.96;;;5.17;52.81
38452;BME280;24231;52.514;13.438;2023-01-25T01:12:38;103278.73;;;5.38;52.68
38452;BME280;24231;52.514;13.438;2023-01-25T01:15:07;103280.27;;;5.21;52.85
38452;BME280;24231;52.514;13.438;2023-01-25T01:17:34;103277.11;;;5.76;51.16
38452;BME280;24231;52.514;13.438;2023-01-25T01:20:02;103265.95;;;6.09;51.01
38452;BME280;24231;52.514;13.438;2023-01-25T01:22:29;103265.78;;;6.01;50.56
38452;BME280;24231;52.514;13.438;2023-01-25T01:24:56;103261.10;;;6.11;50.52
38452;BME280;24231;52.514;13.438;2023-01-25T01:27:23;103262.14;;;5.77;51.13
38452;BME280;24231;52.514;13.438;2023-01-25T01:29:50;103262.73;;;5.91;50.63
38452;BME280;24231;52.514;13.438;2023-01-25T01:32:17;103265.53;;;6.33;49.61
38452;BME280;24231;52.514;13.438;2023-01-25T01:34:44;103266.24;;;5.49;52.51
38452;BME280;24231;52.514;13.438;2023-01-25T01:37:12;103263.50;;;4.99;53.63
38452;BME280;24231;52.514;13.438;2023-01-25T01:39:39;103261.63;;;5.22;52.83
38452;BME280;24231;52.514;13.438;2023-01-25T01:42:06;103260.70;;;5.47;52.16
38452;BME280;24231;52.514;13.438;2023-01-25T01:44:51;103257.98;;;5.55;51.58
38452;BME280;24231;52.514;13.438;2023-01-25T01:47:21;103258.34;;;5.88;51.25
38452;BME280;24231;52.514;13.438;2023-01-25T01:49:56;103258.34;;;5.70;51.42
38452;BME280;24231;52.514;13.438;2023-01-25T01:52:28;103251.23;;;5.83;50.76
38452;BME280;24231;52.514;13.438;2023-01-25T01:55:00;103248.22;;;5.48;52.15
38452;BME280;24231;52.514;13.438;2023-01-25T01:57:33;103248.74;;;5.51;52.05
38452;BME280;24231;52.514;13.438;2023-01-25T02:00:05;103244.99;;;5.79;51.33
38452;BME280;24231;52.514;13.438;2023-01-25T02:02:35;103241.80;;;5.94;51.15
38452;BME280;24231;52.514;13.438;2023-01-25T02:05:06;103240.08;;;5.81;50.97
38452;BME280;24231;52.514;13.438;2023-01-25T02:07:37;103244.86;;;5.90;50.95
38452;BME280;24231;52.514;13.438;2023-01-25T02:10:06;103250.35;;;5.78;51.32
38452;BME280;24231;52.514;13.438;2023-01-25T02:12:34;103245.85;;;5.95;51.05
38452;BME280;24231;52.514;13.438;2023-01-25T02:15:03;103243.90;;;5.92;50.90
38452;BME280;24231;52.514;13.438;2023-01-25T02:17:32;103245.82;;;5.04;52.92
38452;BME280;24231;52.514;13.438;2023-01-25T02:20:07;103246.59;;;3.40;57.91
38452;BME280;24231;52.514;13.438;2023-01-25T02:22:48;103241.06;;;4.93;53.98
38452;BME280;24231;52.514;13.438;2023-01-25T02:25:17;103230.69;;;5.93;51.31
38452;BME280;24231;52.514;13.438;2023-01-25T02:27:50;103231.74;;;5.50;51.77
38452;BME280;24231;52.514;13.438;2023-01-25T02:30:20;103230.32;;;5.65;51.33
38452;BME280;24231;52.514;13.438;2023-01-25T02:32:48;103227.99;;;5.97;50.73
38452;BME280;24231;52.514;13.438;2023-01-25T02:35:19;103229.15;;;5.86;51.89
38452;BME280;24231;52.514;13.438;2023-01-25T02:37:48;103231.70;;;5.80;52.71
38452;BME280;24231;52.514;13.438;2023-01-25T02:40:16;103231.65;;;5.79;51.90
38452;BME280;24231;52.514;13.438;2023-01-25T02:42:44;103230.85;;;3.87;56.21
38452;BME280;24231;52.514;13.438;2023-01-25T02:45:15;103224.78;;;5.33;52.99
38452;BME280;24231;52.514;13.438;2023-01-25T02:47:44;103219.90;;;5.70;51.47
38452;BME280;24231;52.514;13.438;2023-01-25T02:50:12;103216.41;;;5.66;51.69
38452;BME280;24231;52.514;13.438;2023-01-25T02:52:39;103221.34;;;4.70;54.80
38452;BME280;24231;52.514;13.438;2023-01-25T02:55:07;103219.52;;;4.36;55.62
38452;BME280;24231;52.514;13.438;2023-01-25T02:57:35;103223.32;;;4.88;54.98
38452;BME280;24231;52.514;13.438;2023-01-25T03:00:03;103222.20;;;3.85;57.02
38452;BME280;24231;52.514;13.438;2023-01-25T03:02:36;103214.81;;;5.15;53.95
38452;BME280;24231;52.514;13.438;2023-01-25T03:05:04;103209.61;;;5.48;53.34
38452;BME280;24231;52.514;13.438;2023-01-25T03:07:31;103210.26;;;5.59;52.96
38452;BME280;24231;52.514;13.438;2023-01-25T03:09:58;103210.18;;;5.55;52.71
38452;BME280;24231;52.514;13.438;2023-01-25T03:12:25;103209.28;;;5.86;52.02
38452;BME280;24231;52.514;13.438;2023-01-25T03:14:53;103205.65;;;5.92;51.55
38452;BME280;24231;52.514;13.438;2023-01-25T03:17:20;103204.97;;;6.02;50.94
38452;BME280;24231;52.514;13.438;2023-01-25T03:20:20;103201.49;;;5.80;51.36
38452;BME280;24231;52.514;13.438;2023-01-25T03:22:47;103196.32;;;5.88;51.68
38452;BME280;24231;52.514;13.438;2023-01-25T03:25:15;103193.88;;;5.67;52.41
38452;BME280;24231;52.514;13.438;2023-01-25T03:27:42;103193.32;;;5.84;51.77
38452;BME280;24231;52.514;13.438;2023-01-25T03:30:10;103196.27;;;3.53;57.97
38452;BME280;24231;52.514;13.438;2023-01-25T03:32:37;103190.39;;;4.97;54.87
38452;BME280;24231;52.514;13.438;2023-01-25T03:35:05;103192.28;;;5.12;54.00
38452;BME280;24231;52.514;13.438;2023-01-25T03:37:32;103194.04;;;3.49;59.55
38452;BME280;24231;52.514;13.438;2023-01-25T03:40:00;103200.17;;;2.38;63.15
38452;BME280;24231;52.514;13.438;2023-01-25T03:42:27;103199.24;;;2.33;64.31
38452;BME280;24231;52.514;13.438;2023-01-25T03:44:54;103197.87;;;2.96;63.49
38452;BME280;24231;52.514;13.438;2023-01-25T03:47:22;103193.82;;;2.05;64.98
38452;BME280;24231;52.514;13.438;2023-01-25T03:49:49;103186.13;;;4.45;58.50
38452;BME280;24231;52.514;13.438;2023-01-25T03:52:16;103189.14;;;2.68;63.73
38452;BME280;24231;52.514;13.438;2023-01-25T03:54:43;103173.82;;;3.51;61.61
38452;BME280;24231;52.514;13.438;2023-01-25T03:57:11;103178.97;;;3.87;60.93
38452;BME280;24231;52.514;13.438;2023-01-25T03:59:38;103180.88;;;2.58;66.00
38452;BME280;24231;52.514;13.438;2023-01-25T04:02:05;103170.38;;;3.26;62.52
38452;BME280;24231;52.514;13.438;2023-01-25T04:04:34;103163.98;;;3.84;61.23
38452;BME280;24231;52.514;13.438;2023-01-25T04:07:01;103160.21;;;2.97;62.73
38452;BME280;24231;52.514;13.438;2023-01-25T04:09:29;103155.37;;;3.15;61.55
38452;BME280;24231;52.514;13.438;2023-01-25T04:11:56;103153.53;;;3.05;63.45
38452;BME280;24231;52.514;13.438;2023-01-25T04:14:24;103148.12;;;2.87;64.04
38452;BME280;24231;52.514;13.438;2023-01-25T04:16:51;103142.40;;;2.94;63.37
38452;BME280;24231;52.514;13.438;2023-01-25T04:19:18;103137.95;;;4.08;59.73
38452;BME280;24231;52.514;13.438;2023-01-25T04:21:46;103135.63;;;4.06;59.07
38452;BME280;24231;52.514;13.438;2023-01-25T04:24:13;103129.58;;;4.18;58.41
38452;BME280;24231;52.514;13.438;2023-01-25T04:26:41;103124.16;;;4.86;56.80
38452;BME280;24231;52.514;13.438;2023-01-25T04:29:09;103123.19;;;5.78;54.54
38452;BME280;24231;52.514;13.438;2023-01-25T04:31:37;103124.03;;;4.45;57.37
38452;BME280;24231;52.514;13.438;2023-01-25T04:34:04;103116.09;;;4.30;57.70
38452;BME280;24231;52.514;13.438;2023-01-25T04:36:30;103113.07;;;4.42;57.92
38452;BME280;24231;52.514;13.438;2023-01-25T04:38:58;103110.47;;;4.51;57.36
38452;BME280;24231;52.514;13.438;2023-01-25T04:41:25;103113.32;;;3.20;62.09
38452;BME280;24231;52.514;13.438;2023-01-25T04:43:52;103111.31;;;3.75;60.31
38452;BME280;24231;52.514;13.438;2023-01-25T04:46:19;103105.09;;;4.77;57.20
38452;BME280;24231;52.514;13.438;2023-01-25T04:48:47;103107.82;;;3.48;62.20
38452;BME280;24231;52.514;13.438;2023-01-25T04:51:14;103101.72;;;4.41;58.70
38452;BME280;24231;52.514;13.438;2023-01-25T04:53:42;103102.42;;;3.62;62.01
38452;BME280;24231;52.514;13.438;2023-01-25T04:56:09;103105.12;;;3.79;62.14
38452;BME280;24231;52.514;13.438;2023-01-25T04:58:37;103101.33;;;3.01;64.57
38452;BME280;24231;52.514;13.438;2023-01-25T05:01:03;103095.93;;;3.00;64.73
38452;BME280;24231;52.514;13.438;2023-01-25T05:03:32;103094.91;;;3.62;61.64
38452;BME280;24231;52.514;13.438;2023-01-25T05:05:59;103086.86;;;5.21;57.48
38452;BME280;24231;52.514;13.438;2023-01-25T05:08:26;103089.07;;;3.61;61.46
38452;BME280;24231;52.514;13.438;2023-01-25T05:10:53;103091.64;;;4.11;60.00
38452;BME280;24231;52.514;13.438;2023-01-25T05:13:21;103087.07;;;3.18;62.88
38452;BME280;24231;52.514;13.438;2023-01-25T05:15:48;103085.12;;;3.75;62.77
38452;BME280;24231;52.514;13.438;2023-01-25T05:18:16;103087.37;;;2.65;67.18
38452;BME280;24231;52.514;13.438;2023-01-25T05:20:43;103085.67;;;3.10;66.36
38452;BME280;24231;52.514;13.438;2023-01-25T05:23:10;103082.58;;;3.92;61.60
38452;BME280;24231;52.514;13.438;2023-01-25T05:25:38;103084.40;;;2.57;66.09
38452;BME280;24231;52.514;13.438;2023-01-25T05:28:05;103088.08;;;2.05;69.40
38452;BME280;24231;52.514;13.438;2023-01-25T05:30:33;103078.27;;;3.85;63.58
38452;BME280;24231;52.514;13.438;2023-01-25T05:33:01;103075.10;;;3.03;65.42
38452;BME280;24231;52.514;13.438;2023-01-25T05:35:28;103072.59;;;3.54;64.25
38452;BME280;24231;52.514;13.438;2023-01-25T05:37:56;103078.85;;;3.13;65.12
38452;BME280;24231;52.514;13.438;2023-01-25T05:40:24;103091.27;;;2.14;68.43
38452;BME280;24231;52.514;13.438;2023-01-25T05:42:54;103095.99;;;2.21;68.69
38452;BME280;24231;52.514;13.438;2023-01-25T05:45:22;103093.07;;;2.20;68.41
38452;BME280;24231;52.514;13.438;2023-01-25T05:47:51;103088.80;;;3.05;66.12
38452;BME280;24231;52.514;13.438;2023-01-25T05:50:18;103085.16;;;4.98;58.29
38452;BME280;24231;52.514;13.438;2023-01-25T05:52:46;103088.78;;;3.95;59.95
38452;BME280;24231;52.514;13.438;2023-01-25T05:55:13;103079.86;;;4.14;59.92
38452;BME280;24231;52.514;13.438;2023-01-25T05:57:41;103080.48;;;3.64;62.06
38452;BME280;24231;52.514;13.438;2023-01-25T06:00:10;103077.44;;;3.53;62.76
38452;BME280;24231;52.514;13.438;2023-01-25T06:02:37;103072.74;;;4.05;61.06
38452;BME280;24231;52.514;13.438;2023-01-25T06:05:05;103073.14;;;2.88;64.48
38452;BME280;24231;52.514;13.438;2023-01-25T06:07:34;103080.03;;;1.76;70.95
38452;BME280;24231;52.514;13.438;2023-01-25T06:10:02;103076.56;;;1.55;72.15
38452;BME280;24231;52.514;13.438;2023-01-25T06:12:30;103072.17;;;2.12;71.05
38452;BME280;24231;52.514;13.438;2023-01-25T06:14:56;103058.85;;;3.16;66.65
38452;BME280;24231;52.514;13.438;2023-01-25T06:17:23;103055.72;;;4.10;63.31
38452;BME280;24231;52.514;13.438;2023-01-25T06:19:51;103055.50;;;3.30;65.22
38452;BME280;24231;52.514;13.438;2023-01-25T06:22:18;103055.92;;;3.79;63.41
38452;BME280;24231;52.514;13.438;2023-01-25T06:24:45;103053.05;;;3.16;64.77
38452;BME280;24231;52.514;13.438;2023-01-25T06:27:12;103048.33;;;4.73;59.92
38452;BME280;24231;52.514;13.438;2023-01-25T06:29:40;103048.92;;;3.32;65.18
38452;BME280;24231;52.514;13.438;2023-01-25T06:32:07;103049.17;;;3.75;63.92
38452;BME280;24231;52.514;13.438;2023-01-25T06:34:34;103049.53;;;4.19;60.36
38452;BME280;24231;52.514;13.438;2023-01-25T06:37:01;103061.80;;;3.43;64.92
38452;BME280;24231;52.514;13.438;2023-01-25T06:39:29;103064.06;;;2.60;67.67
38452;BME280;24231;52.514;13.438;2023-01-25T06:41:56;103066.68;;;2.12;68.78
38452;BME280;24231;52.514;13.438;2023-01-25T06:44:24;103056.02;;;2.77;66.42
38452;BME280;24231;52.514;13.438;2023-01-25T06:46:51;103050.13;;;2.99;66.55
38452;BME280;24231;52.514;13.438;2023-01-25T06:49:18;103053.24;;;2.01;69.68
38452;BME280;24231;52.514;13.438;2023-01-25T06:51:46;103054.69;;;1.42;73.47
38452;BME280;24231;52.514;13.438;2023-01-25T06:54:13;103049.94;;;1.50;74.05
38452;BME280;24231;52.514;13.438;2023-01-25T06:56:40;103041.70;;;1.77;73.32
38452;BME280;24231;52.514;13.438;2023-01-25T06:59:07;103030.93;;;1.98;70.64
38452;BME280;24231;52.514;13.438;2023-01-25T07:01:35;103027.81;;;2.33;70.26
38452;BME280;24231;52.514;13.438;2023-01-25T07:04:03;103026.53;;;2.74;68.83
38452;BME280;24231;52.514;13.438;2023-01-25T07:06:31;103026.95;;;2.11;70.05
38452;BME280;24231;52.514;13.438;2023-01-25T07:09:02;103022.56;;;2.64;67.94
38452;BME280;24231;52.514;13.438;2023-01-25T07:11:30;103025.70;;;2.38;69.30
38452;BME280;24231;52.514;13.438;2023-01-25T07:13:57;103023.78;;;2.43;68.83
38452;BME280;24231;52.514;13.438;2023-01-25T07:16:25;103022.33;;;2.20;70.63
38452;BME280;24231;52.514;13.438;2023-01-25T07:18:53;103020.60;;;2.60;71.40
38452;BME280;24231;52.514;13.438;2023-01-25T07:21:23;103018.70;;;3.81;64.79
38452;BME280;24231;52.514;13.438;2023-01-25T07:23:50;103014.70;;;2.37;69.69
38452;BME280;24231;52.514;13.438;2023-01-25T07:26:19;103011.38;;;4.22;63.27
38452;BME280;24231;52.514;13.438;2023-01-25T07:28:47;103013.55;;;3.39;63.97
38452;BME280;24231;52.514;13.438;2023-01-25T07:31:15;103009.77;;;2.53;68.31
38452;BME280;24231;52.514;13.438;2023-01-25T07:33:47;103011.22;;;2.37;70.23
38452;BME280;24231;52.514;13.438;2023-01-25T07:36:14;103011.10;;;1.56;73.22
38452;BME280;24231;52.514;13.438;2023-01-25T07:38:40;102997.24;;;3.60;66.23
38452;BME280;24231;52.514;13.438;2023-01-25T07:41:08;102992.42;;;3.77;63.96
38452;BME280;24231;52.514;13.438;2023-01-25T07:43:35;102992.11;;;4.33;62.22
38452;BME280;24231;52.514;13.438;2023-01-25T07:46:05;102997.89;;;3.14;65.46
38452;BME280;24231;52.514;13.438;2023-01-25T07:48:33;102993.82;;;3.76;65.46
38452;BME280;24231;52.514;13.438;2023-01-25T07:51:01;102991.85;;;3.91;64.96
38452;BME280;24231;52.514;13.438;2023-01-25T07:53:28;102992.87;;;1.87;71.08
38452;BME280;24231;52.514;13.438;2023-01-25T07:55:58;102989.59;;;3.16;68.34
38452;BME280;24231;52.514;13.438;2023-01-25T07:58:25;102982.26;;;3.84;64.69
38452;BME280;24231;52.514;13.438;2023-01-25T08:00:52;102980.20;;;4.45;62.11
38452;BME280;24231;52.514;13.438;2023-01-25T08:03:20;102981.61;;;2.40;69.70
38452;BME280;24231;52.514;13.438;2023-01-25T08:05:47;102979.73;;;3.39;66.14
38452;BME280;24231;52.514;13.438;2023-01-25T08:08:15;102976.75;;;3.02;68.75
38452;BME280;24231;52.514;13.438;2023-01-25T08:10:41;102971.87;;;3.36;67.37
38452;BME280;24231;52.514;13.438;2023-01-25T08:13:09;102967.64;;;3.48;67.02
38452;BME280;24231;52.514;13.438;2023-01-25T08:15:36;102963.26;;;4.26;64.38
38452;BME280;24231;52.514;13.438;2023-01-25T08:18:04;102962.85;;;3.91;63.84
38452;BME280;24231;52.514;13.438;2023-01-25T08:20:31;102967.78;;;3.13;67.34
38452;BME280;24231;52.514;13.438;2023-01-25T08:22:58;102962.06;;;3.58;66.17
38452;BME280;24231;52.514;13.438;2023-01-25T08:25:25;102957.99;;;3.99;64.22
38452;BME280;24231;52.514;13.438;2023-01-25T08:27:52;102955.91;;;3.64;65.36
38452;BME280;24231;52.514;13.438;2023-01-25T08:30:20;102959.19;;;3.56;65.59
38452;BME280;24231;52.514;13.438;2023-01-25T08:32:48;102962.12;;;2.69;69.76
38452;BME280;24231;52.514;13.438;2023-01-25T08:35:15;102957.42;;;1.87;72.68
38452;BME280;24231;52.514;13.438;2023-01-25T08:37:43;102958.26;;;2.35;71.92
38452;BME280;24231;52.514;13.438;2023-01-25T08:40:11;102961.49;;;2.44;70.55
38452;BME280;24231;52.514;13.438;2023-01-25T08:42:39;102963.28;;;1.54;74.50
38452;BME280;24231;52.514;13.438;2023-01-25T08:45:07;102956.86;;;2.87;70.62
38452;BME280;24231;52.514;13.438;2023-01-25T08:47:35;102953.82;;;2.25;71.49
38452;BME280;24231;52.514;13.438;2023-01-25T08:50:03;102950.10;;;1.50;73.40
38452;BME280;24231;52.514;13.438;2023-01-25T08:52:30;102946.84;;;1.52;75.28
38452;BME280;24231;52.514;13.438;2023-01-25T08:54:57;102946.71;;;2.37;71.72
38452;BME280;24231;52.514;13.438;2023-01-25T08:57:24;102956.63;;;1.45;75.46
38452;BME280;24231;52.514;13.438;2023-01-25T08:59:51;102954.36;;;1.82;74.17
38452;BME280;24231;52.514;13.438;2023-01-25T09:02:18;102963.21;;;1.40;77.23
38452;BME280;24231;52.514;13.438;2023-01-25T09:04:46;102954.83;;;1.93;74.07
38452;BME280;24231;52.514;13.438;2023-01-25T09:07:13;102958.48;;;1.15;77.93
38452;BME280;24231;52.514;13.438;2023-01-25T09:09:40;102952.20;;;2.75;71.78
38452;BME280;24231;52.514;13.438;2023-01-25T09:12:08;102950.80;;;1.86;73.60
38452;BME280;24231;52.514;13.438;2023-01-25T09:14:36;102957.92;;;1.15;77.82
38452;BME280;24231;52.514;13.438;2023-01-25T09:17:03;102951.61;;;2.93;70.97
38452;BME280;24231;52.514;13.438;2023-01-25T09:19:30;102957.48;;;1.37;75.42
38452;BME280;24231;52.514;13.438;2023-01-25T09:21:58;102950.31;;;2.63;72.27
38452;BME280;24231;52.514;13.438;2023-01-25T09:24:25;102946.75;;;2.13;73.72
38452;BME280;24231;52.514;13.438;2023-01-25T09:26:52;102943.18;;;2.79;70.20
38452;BME280;24231;52.514;13.438;2023-01-25T09:29:20;102939.84;;;3.19;68.24
38452;BME280;24231;52.514;13.438;2023-01-25T09:31:47;102938.68;;;2.70;69.51
38452;BME280;24231;52.514;13.438;2023-01-25T09:34:14;102935.89;;;2.40;72.53
38452;BME280;24231;52.514;13.438;2023-01-25T09:36:42;102933.99;;;2.27;73.30
38452;BME280;24231;52.514;13.438;2023-01-25T09:39:10;102933.79;;;2.10;74.27
38452;BME280;24231;52.514;13.438;2023-01-25T09:41:57;102932.66;;;3.05;71.25
38452;BME280;24231;52.514;13.438;2023-01-25T09:44:41;102929.59;;;4.06;66.82
38452;BME280;24231;52.514;13.438;2023-01-25T09:47:22;102929.51;;;2.81;69.13
38452;BME280;24231;52.514;13.438;2023-01-25T09:50:11;102928.95;;;1.51;75.96
38452;BME280;24231;52.514;13.438;2023-01-25T09:53:33;102921.65;;;2.60;72.06
38452;BME280;24231;52.514;13.438;2023-01-25T09:56:07;102917.36;;;2.92;70.96
38452;BME280;24231;52.514;13.438;2023-01-25T09:58:38;102912.17;;;3.96;65.53
38452;BME280;24231;52.514;13.438;2023-01-25T10:01:18;102919.41;;;2.93;68.83
38452;BME280;24231;52.514;13.438;2023-01-25T10:03:53;102914.12;;;2.61;70.82
38452;BME280;24231;52.514;13.438;2023-01-25T10:06:23;102906.87;;;4.41;64.13
38452;BME280;24231;52.514;13.438;2023-01-25T10:08:58;102905.13;;;2.44;69.75
38452;BME280;24231;52.514;13.438;2023-01-25T10:11:28;102908.27;;;2.43;70.45
38452;BME280;24231;52.514;13.438;2023-01-25T10:13:57;102901.03;;;3.71;66.59
38452;BME280;24231;52.514;13.438;2023-01-25T10:16:30;102901.26;;;2.87;68.94
38452;BME280;24231;52.514;13.438;2023-01-25T10:19:05;102898.27;;;2.23;72.15
38452;BME280;24231;52.514;13.438;2023-01-25T10:21:41;102891.05;;;2.76;72.65
38452;BME280;24231;52.514;13.438;2023-01-25T10:24:26;102886.57;;;4.62;63.73
38452;BME280;24231;52.514;13.438;2023-01-25T10:27:17;102886.01;;;2.95;69.19
38452;BME280;24231;52.514;13.438;2023-01-25T10:29:47;102877.47;;;2.77;70.71
38452;BME280;24231;52.514;13.438;2023-01-25T10:32:19;102868.01;;;3.19;68.59
38452;BME280;24231;52.514;13.438;2023-01-25T10:34:52;102863.61;;;3.24;69.28
38452;BME280;24231;52.514;13.438;2023-01-25T10:37:25;102865.01;;;1.73;73.64
38452;BME280;24231;52.514;13.438;2023-01-25T10:39:56;102862.41;;;1.56;74.20
38452;BME280;24231;52.514;13.438;2023-01-25T10:42:30;102861.87;;;2.16;73.31
38452;BME280;24231;52.514;13.438;2023-01-25T10:44:59;102863.79;;;3.00;69.81
38452;BME280;24231;52.514;13.438;2023-01-25T10:47:28;102862.26;;;2.28;71.25
38452;BME280;24231;52.514;13.438;2023-01-25T10:49:58;102854.86;;;2.92;69.34
38452;BME280;24231;52.514;13.438;2023-01-25T10:52:27;102856.16;;;1.96;75.25
38452;BME280;24231;52.514;13.438;2023-01-25T10:55:26;102846.41;;;3.88;66.79
38452;BME280;24231;52.514;13.438;2023-01-25T10:57:55;102843.33;;;2.21;72.21
38452;BME280;24231;52.514;13.438;2023-01-25T11:00:35;102833.97;;;3.61;67.67
38452;BME280;24231;52.514;13.438;2023-01-25T11:03:04;102834.87;;;2.55;71.67
38452;BME280;24231;52.514;13.438;2023-01-25T11:05:33;102832.32;;;2.03;75.88
38452;BME280;24231;52.514;13.438;2023-01-25T11:08:21;102827.04;;;1.14;77.78
38452;BME280;24231;52.514;13.438;2023-01-25T11:10:59;102818.99;;;2.07;74.61
38452;BME280;24231;52.514;13.438;2023-01-25T11:13:39;102818.07;;;2.41;73.41
38452;BME280;24231;52.514;13.438;2023-01-25T11:16:19;102818.25;;;2.46;72.40
38452;BME280;24231;52.514;13.438;2023-01-25T11:18:51;102813.15;;;1.97;74.89
38452;BME280;24231;52.514;13.438;2023-01-25T11:21:20;102803.37;;;3.55;68.75
38452;BME280;24231;52.514;13.438;2023-01-25T11:24:15;102800.20;;;2.82;70.03
38452;BME280;24231;52.514;13.438;2023-01-25T11:26:44;102781.18;;;5.13;61.13
38452;BME280;24231;52.514;13.438;2023-01-25T11:29:14;102778.80;;;5.31;60.50
38452;BME280;24231;52.514;13.438;2023-01-25T11:31:45;102780.07;;;3.12;67.20
38452;BME280;24231;52.514;13.438;2023-01-25T11:34:25;102769.51;;;4.67;62.61
38452;BME280;24231;52.514;13.438;2023-01-25T11:37:06;102767.42;;;3.85;64.97
38452;BME280;24231;52.514;13.438;2023-01-25T11:39:47;102759.01;;;2.58;70.98
38452;BME280;24231;52.514;13.438;2023-01-25T11:42:26;102759.24;;;4.13;65.73
38452;BME280;24231;52.514;13.438;2023-01-25T11:45:09;102756.01;;;4.21;65.39
38452;BME280;24231;52.514;13.438;2023-01-25T11:47:53;102754.23;;;2.21;71.41
38452;BME280;24231;52.514;13.438;2023-01-25T11:50:32;102743.54;;;3.68;68.07
38452;BME280;24231;52.514;13.438;2023-01-25T11:53:29;102730.32;;;3.06;68.75
38452;BME280;24231;52.514;13.438;2023-01-25T11:56:05;102726.52;;;3.88;67.51
38452;BME280;24231;52.514;13.438;2023-01-25T11:58:55;102720.08;;;4.12;65.06
38452;BME280;24231;52.514;13.438;2023-01-25T12:01:33;102716.18;;;4.31;64.97
38452;BME280;24231;52.514;13.438;2023-01-25T12:04:18;102703.74;;;4.50;64.15
38452;BME280;24231;52.514;13.438;2023-01-25T12:06:57;102690.81;;;5.03;61.82
38452;BME280;24231;52.514;13.438;2023-01-25T12:09:43;102692.24;;;2.01;72.95
38452;BME280;24231;52.514;13.438;2023-01-25T12:12:22;102689.06;;;1.61;74.88
38452;BME280;24231;52.514;13.438;2023-01-25T12:15:05;102683.43;;;1.79;74.67
38452;BME280;24231;52.514;13.438;2023-01-25T12:17:49;102677.29;;;3.77;69.12
38452;BME280;24231;52.514;13.438;2023-01-25T12:20:30;102672.73;;;2.25;73.48
38452;BME280;24231;52.514;13.438;2023-01-25T12:23:15;102669.48;;;1.46;76.79
38452;BME280;24231;52.514;13.438;2023-01-25T12:25:55;102660.12;;;1.73;76.25
38452;BME280;24231;52.514;13.438;2023-01-25T12:28:28;102657.46;;;3.52;70.38
38452;BME280;24231;52.514;13.438;2023-01-25T12:31:01;102652.79;;;3.36;70.77
38452;BME280;24231;52.514;13.438;2023-01-25T12:33:35;102653.41;;;3.06;71.11
38452;BME280;24231;52.514;13.438;2023-01-25T12:36:09;102642.35;;;3.93;67.04
38452;BME280;24231;52.514;13.438;2023-01-25T12:38:41;102645.32;;;3.25;68.83
38452;BME280;24231;52.514;13.438;2023-01-25T12:41:19;102638.63;;;4.19;64.60
38452;BME280;24231;52.514;13.438;2023-01-25T12:43:53;102642.67;;;2.75;69.61
38452;BME280;24231;52.514;13.438;2023-01-25T12:46:28;102633.63;;;4.17;65.45
38452;BME280;24231;52.514;13.438;2023-01-25T12:49:02;102634.31;;;1.86;73.09
38452;BME280;24231;52.514;13.438;2023-01-25T12:51:34;102632.50;;;1.57;75.17
38452;BME280;24231;52.514;13.438;2023-01-25T12:54:09;102626.93;;;1.35;76.75
38452;BME280;24231;52.514;13.438;2023-01-25T12:56:42;102619.32;;;1.60;75.59
38452;BME280;24231;52.514;13.438;2023-01-25T12:59:16;102619.01;;;1.07;78.68
38452;BME280;24231;52.514;13.438;2023-01-25T13:01:52;102614.45;;;1.00;79.34
38452;BME280;24231;52.514;13.438;2023-01-25T13:04:32;102613.62;;;2.42;74.74
38452;BME280;24231;52.514;13.438;2023-01-25T13:07:09;102619.24;;;1.38;77.58
38452;BME280;24231;52.514;13.438;2023-01-25T13:09:43;102613.69;;;0.94;78.83
38452;BME280;24231;52.514;13.438;2023-01-25T13:12:16;102606.63;;;2.82;73.39